Chicago Rockford International Airport
KRFD : now visible

Airfield :











YOU CAN JOIN US ON...

 
LOGIN :

Register | Disclaimer

   EN    FR    IT 

 









Legend :    VFR   Marginal VFR   IFR   Intensive IFR   Very Intensive IFR
Visi :
Ceiling :
>= 8 km
>= 3000ft
5 to 8 km
1000 to 3000 ft
1500m to 5 km
500 to 1000 ft
800 to 1500m
200 to 500 ft
< 800m
< 200 ft
Symbols :   Thunderstorms  Fog  Heavy snow  Heavy precipitations  Wind > 20 kt






- Airport Elevation : 742 ft
- IATA code : RFD


KRFD - Chicago Rockford International

CURRENT METAR :
  • 280313Z 00000KT 1/4SM BCFG BR VV002 M02/M03 A2984 RMK AO2 TWR VIS 10 T10171028 RVRNO $

EXPIRED METARs :
  • 280306Z 00000KT 1/2SM BCFG BR VV002 M03/M04 A2984 RMK AO2 TWR VIS 10 T10281039 RVRNO $
  • 280258Z 00000KT 1 1/2SM BR CLR M03/M04 A2984 RMK AO2 TWR VIS 10 T10331039 $
  • 280218Z 00000KT 3SM BR FEW027 M01/M02 A2983 RMK AO2 TWR VIS 10 I1000 T10111022 $
  • 280202Z 00000KT 2 1/2SM BR FEW027 M01/M02 A2983 RMK AO2 VIS 1 1/4V4 T10111022 $
  • 272154Z 35008KT 10SM OVC023 05/02 A2972 RMK AO2 SLP068 T00500022 $

TAF KRFD
Valid from the 28 at 03:00 until the 29 at 00:00 UTC


280259Z 2803/2824 30003KT 5SM BR BCFG FEW025 BKN250
TEMPO 2809/2813 2SM BR FEW020 SCT250
FM281400 14005KT P6SM FEW020 SCT250
FM281800 18009G15KT P6SM FEW020 SCT250
KZAU FIR / North America



MET'MAP, your aeronautical weather chart ! - Copyright ORBIFLY December 2007 - Disclaimer

ORBIFLY MET'MAP TEAM :

Programming & Development : Alexandra Zaïnal
Original concept : Baudouin d'Aumeries
Technical & hardware support : Manuel Goepfert
Assistance : Marc-Olivier Méhu




SOURCES & CREDITS :

   NOAA       Earth
Advisory